x

Gulf Of Maine - 78 Nm East Of Portsmouth, Nh (44005) Wave Buoy

10:50 - Sat 31st Jan 2015 All times are EST. -5 hours from GMT.

  • Sig Wave height 11.2ft
  • Peak Period 8s
  • Average Period 6s
  • Wind
    31mph, 40mph gusts
  • Sea Temp 44°f
  • Aire Temp 21°f
  • Sea Pressure 1010.9mb
  • Gulf Of Maine - 78 Nm East Of Portsmouth, Nh
  • Gulf Of Maine - 78 Nm East Of Portsmouth, Nh

More Historic Weather Station data

Upgrade to MSW Pro to gain access to the past 30 days of data for over 8000 Wavebouys and Weather Stations around the globe.

Join Pro

Comparision Forecast

View Surf forecast
   
sáb 01/31 10:50 11ft 8s 6s 31 40 mph 1010.9mb 44f 21f
9:50 12ft 8s 6s 34 43 mph 1010.3mb 44f 22f
8:50 15ft 8s 7s 36 43 mph 1009.5mb 44f 22f
7:50 13ft 8s 6s 38 45 mph 1008.8mb 44f 22f
6:50 15ft 8s 7s 38 49 mph 1008.1mb 44f 23f
5:50 14.5ft 7s 7s 36 45 mph 1007mb 44f 25f
4:50 14ft 8s 7s 36 45 mph 1005.8mb 44f 24f
3:50 14.5ft 8s 7s 34 45 mph 1005mb 44f 25f
2:50 15.5ft 8s 7s 38 49 mph 1003.9mb 44f 24f
1:50 15.5ft 8s 7s 38 45 mph 1002.9mb 44f 24f
12:50 15.5ft 8s 7s 38 47 mph 1002mb 44f 24f
11:50  -   -   -  38
mph
1001.9mb 44f 23f
10:50 15.5ft 8s 7s 38 47 mph 1001.7mb 44f 25f
9:50 18.5ft 8s 7s 40 49 mph 1001.4mb 44f 24f
8:50 17.5ft 8s 7s 40 51 mph 1000.6mb 44f 25f
7:50 16.5ft 8s 7s 40 49 mph 1000.1mb 44f 25f
6:50 16.5ft 8s 7s 40 51 mph 999.7mb 44f 26f
5:50 15ft 8s 7s 40 49 mph 998.8mb 44f 26f
4:50 14ft 8s 7s 43 51 mph 997.8mb 44f 27f
3:50 14ft 8s 6s 40 49 mph 998.3mb 44f 28f
2:50 13ft 8s 6s 36 47 mph 998.3mb 44f 29f
1:50 12ft 7s 6s 36 45 mph 998.7mb 44f 30f
12:50 10ft 6s 5s 36 47 mph 998.4mb 44f 32f
vie 01/30 11:50 8ft 6s 5s 34 40 mph 998.7mb 44f 35f
10:50 6ft 5s 4s 31 36 mph 999.7mb 44f 35f
9:50 4.5ft 6s 5s 25 29 mph 1000.6mb 44f 35f
8:50 4ft 9s 4s 20 25 mph 1001.4mb 44f 35f
7:50 3.5ft 5s 4s 18 22 mph 1002.3mb 44f 37f
6:50 3.5ft 6s 4s 18 20 mph 1002.8mb 44f 37f
5:50 3.5ft 5s 5s 16 18 mph 1003.2mb 44f 38f
4:50 4ft 5s 5s 7 9 mph 1004mb 44f 38f
3:50 4.5ft 5s 5s 9 11 mph 1004.7mb 44f 40f
2:50 5ft 5s 5s 13 18 mph 1004.9mb 44f 40f
1:50 5ft 6s 5s 20 22 mph 1005.6mb 44f 39f
12:50 5ft 6s 5s 22 27 mph 1006.4mb 44f 40f
11:50 5ft 5s 5s 20 25 mph 1007.3mb 44f 39f
10:50 5ft 10s 5s 22 27 mph 1008.6mb 44f 39f
9:50 4.5ft 5s 4s 22 25 mph 1009.4mb 44f 40f
8:50 3.5ft 10s 5s 20 22 mph 1009.9mb 44f 40f
7:50 3.5ft 10s 5s 18 22 mph 1010.6mb 44f 40f
6:50 3ft 10s 4s 16 18 mph 1011.5mb 44f 39f
5:50 2.5ft 10s 4s 16 20 mph 1012.6mb 44f 38f
4:50 2.5ft 11s 4s 13 16 mph 1013.4mb 44f 38f
3:50 2.5ft 11s 5s 13 18 mph 1014.7mb 44f 38f
2:50 2.5ft 10s 5s 13 16 mph 1015.8mb 44f 37f
1:50 3ft 10s 5s 16 18 mph 1017mb 44f 37f
12:50 3ft 11s 6s 16 18 mph 1017.8mb 44f 37f
jue 01/29 11:50 3ft 9s 6s 13 18 mph 1017.8mb 44f 36f
10:50 3ft 10s 7s 11 13 mph 1019mb 44f 36f
9:50 2.5ft 10s 6s 7 9 mph 1019.5mb 44f 35f
8:50 2.5ft 11s 6s 4 9 mph 1020.4mb 44f 34f
7:50 2.5ft 11s 6s 4 7 mph 1020.8mb 44f 33f
6:50 2.5ft 11s 5s 4 9 mph 1021.4mb 44f 33f
5:50 2.5ft 11s 5s 7 11 mph 1021.5mb 44f 32f
4:50 3ft 6s  -  4 7 mph 1022mb 44f 32f
3:50 3ft 6s 5s 4 9 mph 1022.3mb 44f 31f
2:50 3ft 10s 5s 7 9 mph 1022.8mb 44f 31f
1:50 3.5ft 11s 5s 7 11 mph 1023.4mb 44f 30f
12:50 3.5ft 10s 5s 9 13 mph 1023.9mb 44f 30f
11:50 3.5ft 10s 5s 11 16 mph 1024.6mb 44f 29f
10:50 3.5ft 10s 5s 16 18 mph 1025.2mb 44f 29f
9:50 4ft 10s 5s 11 18 mph 1025.8mb 44f 29f
8:50 4.5ft 10s 5s 11 16 mph 1025.4mb 44f 28f
7:50 4.5ft 10s 5s 13 16 mph 1025mb 44f 27f
6:50 4.5ft 11s 5s 16 20 mph 1024.6mb 44f 27f
5:50 4.5ft 5s 5s 13 16 mph 1023.9mb 44f 27f
4:50 4.5ft 5s 5s 16 20 mph 1023.3mb 44f 26f
3:50 5ft 5s 5s 20 25 mph 1023.4mb 44f 26f
2:50 5.5ft 5s 5s 20 25 mph 1023.6mb 44f 25f
1:50 5.5ft 6s 5s 20 27 mph 1022.9mb 44f 25f
12:50 6ft 11s 6s 18 25 mph 1022.2mb 44f 24f
mié 01/28 11:50 6.5ft 5s 5s 18 22 mph 1021.7mb 44f 24f
10:50 7ft 6s 5s 20 25 mph 1020.9mb 44f 24f
9:50 7ft 6s 5s 20 25 mph 1019.7mb 44f 26f
8:50  -   -   -  22 29 mph 1018.9mb 44f 25f
7:50 8ft 6s 5s 22 29 mph 1018.2mb 44f 26f
6:50 8.5ft 6s 6s 25 31 mph 1016.7mb 44f 25f
5:50 8ft 11s 6s 25 31 mph 1015.5mb 44f 25f
4:50  -   -   -  25
mph
- - 25f
3:50  -   -   -  22 27 mph 1013.5mb 44f 24f
2:50 8.5ft 7s 6s 20 27 mph 1012.3mb 44f 24f
1:50  -   -   -  20 27 mph 1011.5mb 44f 23f
12:50 10.5ft 8s 6s 22 27 mph 1011.1mb 44f 22f
11:50 10ft 8s 6s 22 31 mph 1010.9mb 44f 22f
10:50  -   -   -  25 31 mph 1010.5mb 44f 22f
8:50 12.5ft 10s 7s 25 31 mph 1008.1mb 44f 23f
7:50  -   -   -  27
mph
- - 23f
6:50  -   -   -  29
mph
1004.6mb - 23f
5:50  -   -   -  29
mph
1003.1mb - 24f
4:50  -   -   -  34
mph
- - 24f